Time;durP1;ratioP1;P1;durP2;ratioP2;P2;SDS_P1;SDS_P2;PMS_P1;PMS_P2;Temp;Humidity;BMP_temperature;BMP_pressure;BME280_temperature;BME280_humidity;BME280_pressure;Samples;Min_cycle;Max_cycle;Signal;HPM_P1;HPM_P2
2021/09/13 00:00:47;;;;;;;;;;;;;;;29.08;38.07;100501.06;5159952;27;946;-41
2021/09/13 00:03:13;;;;;;;;;;;;;;;29.19;38.09;100494.25;5160273;27;815;-40
2021/09/13 00:05:38;;;;;;;;;;;;;;;29.17;38.10;100490.91;5160326;27;822;-40
2021/09/13 00:08:04;;;;;;;;;;;;;;;29.21;38.09;100488.63;5160405;27;727;-40
2021/09/13 00:10:29;;;;;;;;;;;;;;;29.14;38.38;100483.19;5141719;27;1104;-40
2021/09/13 00:12:54;;;;;;;;;;;;;;;29.30;38.06;100483.84;5159816;27;1970;-40
2021/09/13 00:15:19;;;;;;;;;;;;;;;29.31;38.16;100480.13;5159515;27;992;-40
2021/09/13 00:17:45;;;;;;;;;;;;;;;29.38;37.96;100483.66;5160285;27;786;-41
2021/09/13 00:20:10;;;;;;;;;;;;;;;29.34;38.25;100477.81;5160476;27;759;-40
2021/09/13 00:22:35;;;;;;;;;;;;;;;29.29;38.35;100477.59;5160015;27;1557;-40
2021/09/13 00:25:01;;;;;;;;;;;;;;;29.23;38.50;100481.13;5159980;27;782;-40
2021/09/13 00:27:26;;;;;;;;;;;;;;;29.28;38.22;100480.53;5159858;27;820;-41
2021/09/13 00:29:51;;;;;;;;;;;;;;;28.62;38.25;100369.06;5159623;27;953;-40
2021/09/13 00:32:17;;;;;;;;;;;;;;;29.14;38.42;100483.19;5159962;27;1968;-41
2021/09/13 00:34:42;;;;;;;;;;;;;;;29.30;38.24;100489.25;5160022;27;751;-40
2021/09/13 00:37:07;;;;;;;;;;;;;;;29.21;38.14;100485.91;5159149;27;727;-40
2021/09/13 00:39:33;;;;;;;;;;;;;;;29.24;38.05;100484.66;5160036;27;830;-41
2021/09/13 00:41:58;;;;;;;;;;;;;;;29.16;38.33;100477.56;5159408;27;826;-41
2021/09/13 00:44:24;;;;;;;;;;;;;;;29.23;38.02;100483.00;5159255;27;1028;-41
2021/09/13 00:46:49;;;;;;;;;;;;;;;29.20;38.39;100471.53;5159322;27;819;-41
2021/09/13 00:49:14;;;;;;;;;;;;;;;29.14;38.46;100474.22;5159570;27;1112;-40
2021/09/13 00:51:40;;;;;;;;;;;;;;;29.15;38.35;100474.00;5159427;27;849;-42
2021/09/13 00:54:05;;;;;;;;;;;;;;;29.14;38.18;100479.63;5159648;27;1894;-40
2021/09/13 00:56:30;;;;;;;;;;;;;;;29.25;38.38;100479.03;5159471;27;751;-41
2021/09/13 00:58:56;;;;;;;;;;;;;;;29.32;38.29;100489.91;5158683;27;973;-41
2021/09/13 01:01:21;;;;;;;;;;;;;;;29.19;38.49;100482.56;5159648;27;790;-41
2021/09/13 01:03:46;;;;;;;;;;;;;;;29.23;38.15;100491.13;5158488;27;830;-40
2021/09/13 01:06:12;;;;;;;;;;;;;;;29.20;38.49;100490.50;5159499;27;814;-41
2021/09/13 01:08:37;;;;;;;;;;;;;;;29.26;38.19;100491.53;5140776;27;775;-40
2021/09/13 01:11:02;;;;;;;;;;;;;;;29.29;38.22;100484.88;5158334;27;861;-42
2021/09/13 01:13:28;;;;;;;;;;;;;;;29.15;38.57;100492.13;5158923;27;1909;-41
2021/09/13 01:15:53;;;;;;;;;;;;;;;29.17;38.39;100493.63;5158800;27;934;-40
2021/09/13 01:18:18;;;;;;;;;;;;;;;29.23;38.56;100483.81;5158823;27;861;-40
2021/09/13 01:20:44;;;;;;;;;;;;;;;29.14;38.60;100483.19;5158820;27;1553;-41
2021/09/13 01:23:35;;;;;;;;;;;;;;;29.17;38.66;100487.34;5159143;27;880;-41
2021/09/13 01:26:01;;;;;;;;;;;;;;;29.28;38.35;100485.94;5154580;27;1577;-41
2021/09/13 01:28:26;;;;;;;;;;;;;;;29.17;38.46;100487.34;5158193;27;945;-40
2021/09/13 01:30:52;;;;;;;;;;;;;;;29.14;38.62;100488.59;5158579;27;902;-40
2021/09/13 01:33:17;;;;;;;;;;;;;;;29.09;38.79;100493.78;5158877;27;1913;-40
2021/09/13 01:35:42;;;;;;;;;;;;;;;29.04;38.64;100488.16;5159000;27;806;-41
2021/09/13 01:38:08;;;;;;;;;;;;;;;29.02;38.68;100482.09;5158815;27;774;-41
2021/09/13 01:40:33;;;;;;;;;;;;;;;29.02;38.67;100493.75;5158368;27;767;-40
2021/09/13 01:42:59;;;;;;;;;;;;;;;28.99;38.80;100491.47;5160617;27;1461;-41
2021/09/13 01:45:25;;;;;;;;;;;;;;;28.98;38.64;100492.47;5161964;27;929;-42
2021/09/13 01:47:50;;;;;;;;;;;;;;;28.96;38.81;100491.84;5158086;27;1209;-40
2021/09/13 01:50:15;;;;;;;;;;;;;;;28.99;38.82;100494.19;5139652;27;882;-40
2021/09/13 01:52:41;;;;;;;;;;;;;;;28.97;38.48;100498.94;5158537;27;1913;-40
2021/09/13 01:55:06;;;;;;;;;;;;;;;28.95;38.70;100496.41;5157966;27;903;-41
2021/09/13 01:57:31;;;;;;;;;;;;;;;29.00;38.79;100497.69;5158225;27;1540;-41
2021/09/13 01:59:57;;;;;;;;;;;;;;;28.91;38.72;100500.53;5161161;27;1322;-41
2021/09/13 02:02:22;;;;;;;;;;;;;;;28.90;38.91;100498.03;5158271;27;841;-40
2021/09/13 02:04:47;;;;;;;;;;;;;;;28.97;38.76;100498.94;5157665;27;482;-40
2021/09/13 02:07:13;;;;;;;;;;;;;;;28.98;38.41;100494.38;5161012;27;838;-40
2021/09/13 02:09:38;;;;;;;;;;;;;;;29.03;38.34;100500.84;5164237;27;1461;-40
2021/09/13 02:12:03;;;;;;;;;;;;;;;29.06;38.45;100495.00;5167352;27;1909;-40
2021/09/13 02:14:29;;;;;;;;;;;;;;;29.01;38.51;100494.78;5157462;27;918;-40
2021/09/13 02:16:54;;;;;;;;;;;;;;;29.02;38.39;100499.19;5158234;27;823;-40
2021/09/13 02:19:19;;;;;;;;;;;;;;;29.14;38.30;100494.03;5157807;27;814;-40
2021/09/13 02:21:45;;;;;;;;;;;;;;;29.00;38.51;100489.56;5157679;27;1580;-40
2021/09/13 02:24:10;;;;;;;;;;;;;;;29.13;38.38;100492.34;5157079;27;804;-40
2021/09/13 02:26:35;;;;;;;;;;;;;;;29.05;38.16;100487.94;5157776;27;726;-40
2021/09/13 02:29:01;;;;;;;;;;;;;;;29.05;38.18;100493.34;5157258;27;957;-40
2021/09/13 02:31:27;;;;;;;;;;;;;;;29.08;38.33;100492.09;5161310;27;815;-40
2021/09/13 02:33:52;;;;;;;;;;;;;;;29.20;38.26;100485.06;5165667;27;1901;-40
2021/09/13 02:36:17;;;;;;;;;;;;;;;29.09;38.49;100489.19;5157895;27;743;-40
2021/09/13 02:38:43;;;;;;;;;;;;;;;29.25;38.25;100492.59;5157635;27;743;-40
2021/09/13 02:41:08;;;;;;;;;;;;;;;29.08;38.32;100492.94;5157573;27;778;-40
2021/09/13 02:43:33;;;;;;;;;;;;;;;29.14;38.28;100494.03;5157431;27;961;-40
2021/09/13 02:45:59;;;;;;;;;;;;;;;29.12;38.43;100497.97;5157826;27;770;-40
2021/09/13 02:48:24;;;;;;;;;;;;;;;29.12;38.51;100495.25;5160123;27;1481;-40
2021/09/13 02:50:49;;;;;;;;;;;;;;;29.09;38.38;100486.47;5173818;27;857;-40
2021/09/13 02:53:15;;;;;;;;;;;;;;;29.06;38.25;100491.50;5178808;27;1968;-40
2021/09/13 02:55:40;;;;;;;;;;;;;;;29.09;38.34;100491.91;5178444;27;782;-40
2021/09/13 02:58:05;;;;;;;;;;;;;;;29.02;38.61;100496.47;5178622;27;802;-40
2021/09/13 03:00:30;;;;;;;;;;;;;;;29.05;38.50;100501.47;5159661;27;968;-41
2021/09/13 03:02:56;;;;;;;;;;;;;;;29.09;38.48;100499.22;5157383;27;810;-44
2021/09/13 03:05:21;;;;;;;;;;;;;;;29.07;38.51;100493.16;5157614;27;854;-44
2021/09/13 03:07:46;;;;;;;;;;;;;;;29.05;38.57;100501.47;5157592;27;798;-42
2021/09/13 03:10:12;;;;;;;;;;;;;;;29.11;38.17;100505.28;5157339;27;770;-42
2021/09/13 03:12:37;;;;;;;;;;;;;;;29.12;38.39;100508.78;5164914;27;1897;-40
2021/09/13 03:15:03;;;;;;;;;;;;;;;29.15;38.38;100503.81;5161802;27;1231;-39
2021/09/13 03:17:28;;;;;;;;;;;;;;;29.15;38.58;100501.09;5167017;27;1159;-40
2021/09/13 03:19:54;;;;;;;;;;;;;;;29.16;38.32;100513.59;5166612;27;1306;-41
2021/09/13 03:22:19;;;;;;;;;;;;;;;28.60;38.91;100502.69;5166869;27;1498;-40
2021/09/13 03:24:44;;;;;;;;;;;;;;;28.76;38.96;100499.88;5167761;27;865;-41
2021/09/13 03:27:09;;;;;;;;;;;;;;;28.68;39.76;100507.09;5162361;27;762;-41
2021/09/13 03:29:35;;;;;;;;;;;;;;;28.70;39.71;100510.47;5167739;27;1007;-40
2021/09/13 03:32:00;;;;;;;;;;;;;;;28.66;39.88;100517.28;5158272;27;1964;-44
2021/09/13 03:34:25;;;;;;;;;;;;;;;27.80;35.04;100521.81;5176848;27;737;-41
2021/09/13 03:36:51;;;;;;;;;;;;;;;26.58;36.44;100517.59;5177646;27;1059;-41
2021/09/13 03:39:16;;;;;;;;;;;;;;;26.57;36.11;100511.38;5149794;27;1464;-44
2021/09/13 03:41:41;;;;;;;;;;;;;;;25.93;36.89;100510.75;5160820;27;743;-43
2021/09/13 03:44:06;;;;;;;;;;;;;;;26.62;35.61;100513.50;5169244;27;1458;-43
2021/09/13 03:46:32;;;;;;;;;;;;;;;26.73;35.02;100512.19;5160640;27;794;-42
2021/09/13 03:48:57;;;;;;;;;;;;;;;26.31;35.80;100509.91;5160733;27;1101;-44
2021/09/13 03:51:22;;;;;;;;;;;;;;;26.10;35.48;100506.06;5170286;27;1393;-44
2021/09/13 03:53:48;;;;;;;;;;;;;;;24.92;37.85;100510.44;5179971;27;1913;-44
2021/09/13 03:56:13;;;;;;;;;;;;;;;25.90;36.90;100514.66;5175123;27;1401;-57
2021/09/13 03:58:38;;;;;;;;;;;;;;;25.99;36.22;100519.97;5163110;27;1239;-46
2021/09/13 04:01:04;;;;;;;;;;;;;;;26.51;34.93;100520.19;5173828;27;1465;-44
2021/09/13 04:03:44;;;;;;;;;;;;;;;26.46;35.49;100514.53;5181033;27;782;-40
2021/09/13 04:06:18;;;;;;;;;;;;;;;27.08;34.30;100522.44;5181265;27;846;-43
2021/09/13 04:09:00;;;;;;;;;;;;;;;27.31;33.47;100516.09;5180949;27;806;-44
2021/09/13 04:11:35;;;;;;;;;;;;;;;27.36;33.78;100522.59;5165249;27;803;-43
2021/09/13 04:14:00;;;;;;;;;;;;;;;27.46;33.87;100524.16;5175745;27;1905;-41
2021/09/13 04:16:25;;;;;;;;;;;;;;;27.39;33.75;100524.91;5159780;27;896;-43
2021/09/13 04:18:50;;;;;;;;;;;;;;;27.40;33.94;100528.44;5160305;27;803;-46
2021/09/13 04:21:16;;;;;;;;;;;;;;;26.82;34.25;100530.00;5159723;27;1585;-41
2021/09/13 04:23:41;;;;;;;;;;;;;;;26.78;33.70;100515.19;5159959;27;751;-47
2021/09/13 04:26:06;;;;;;;;;;;;;;;26.43;34.31;100518.44;5160130;27;811;-40
2021/09/13 04:28:32;;;;;;;;;;;;;;;25.65;36.23;100520.22;5159799;27;957;-37
2021/09/13 04:30:57;;;;;;;;;;;;;;;26.00;35.53;100517.09;5159282;27;834;-42
2021/09/13 04:33:22;;;;;;;;;;;;;;;26.36;35.33;100521.00;5159547;27;1905;-42
2021/09/13 04:35:47;;;;;;;;;;;;;;;26.89;34.09;100530.91;5160193;27;766;-41
2021/09/13 04:38:13;;;;;;;;;;;;;;;27.12;33.75;100531.84;5159622;27;782;-39
2021/09/13 04:40:43;;;;;;;;;;;;;;;27.35;33.26;100531.72;5159351;27;1472;-43
2021/09/13 04:43:08;;;;;;;;;;;;;;;27.60;33.57;100530.53;5159228;27;942;-46
2021/09/13 04:45:34;;;;;;;;;;;;;;;27.68;33.00;100538.53;5158028;27;1237;-38
2021/09/13 04:47:59;;;;;;;;;;;;;;;27.63;33.35;100539.09;5159781;27;1311;-44
2021/09/13 04:50:24;;;;;;;;;;;;;;;27.64;33.00;100539.94;5159814;27;755;-38
2021/09/13 04:52:49;;;;;;;;;;;;;;;27.57;33.42;100545.28;5159411;27;1976;-39
2021/09/13 04:55:15;;;;;;;;;;;;;;;27.63;33.45;100541.78;5159177;27;818;-43
2021/09/13 04:57:40;;;;;;;;;;;;;;;27.81;33.39;100540.53;5159521;27;1075;-43
2021/09/13 05:00:06;;;;;;;;;;;;;;;27.76;33.58;100540.28;5159131;27;969;-56
2021/09/13 05:02:31;;;;;;;;;;;;;;;26.20;35.16;100524.69;5159449;27;766;-43
2021/09/13 05:04:56;;;;;;;;;;;;;;;24.97;38.87;100534.16;5159195;27;874;-44
2021/09/13 05:07:22;;;;;;;;;;;;;;;25.05;37.16;100530.59;5159127;27;897;-43
2021/09/13 05:09:47;;;;;;;;;;;;;;;23.56;41.40;100535.84;5158955;27;759;-43
2021/09/13 05:12:13;;;;;;;;;;;;;;;25.12;38.20;100538.81;5159113;27;1960;-43
2021/09/13 05:14:38;;;;;;;;;;;;;;;24.72;38.48;100526.16;5158547;27;949;-42
2021/09/13 05:17:03;;;;;;;;;;;;;;;25.28;38.43;100532.50;5158964;27;825;-48
2021/09/13 05:19:29;;;;;;;;;;;;;;;25.74;36.82;100529.06;5159387;27;773;-43
2021/09/13 05:21:54;;;;;;;;;;;;;;;25.66;36.55;100527.28;5158543;27;1564;-45
2021/09/13 05:24:19;;;;;;;;;;;;;;;25.82;36.18;100530.03;5159080;27;873;-43
2021/09/13 05:26:45;;;;;;;;;;;;;;;25.74;36.28;100533.63;5159003;27;750;-41
2021/09/13 05:29:10;;;;;;;;;;;;;;;23.54;40.99;100526.31;5158541;27;953;-40
2021/09/13 05:31:35;;;;;;;;;;;;;;;24.35;39.94;100531.06;5158559;27;782;-44
2021/09/13 05:34:00;;;;;;;;;;;;;;;23.40;41.91;100533.97;5158384;27;1960;-39
2021/09/13 05:36:26;;;;;;;;;;;;;;;23.83;42.07;100531.22;5158963;27;778;-41
2021/09/13 05:38:51;;;;;;;;;;;;;;;24.80;39.53;100539.56;5158581;27;779;-42
2021/09/13 05:41:16;;;;;;;;;;;;;;;24.69;38.85;100539.94;5158606;27;731;-43
2021/09/13 05:43:42;;;;;;;;;;;;;;;25.03;39.06;100529.94;5158151;27;954;-41
2021/09/13 05:46:07;;;;;;;;;;;;;;;25.51;37.46;100537.94;5157996;27;498;-39
2021/09/13 05:48:32;;;;;;;;;;;;;;;25.69;36.88;100531.47;5158351;27;1293;-41
2021/09/13 05:50:58;;;;;;;;;;;;;;;25.86;36.43;100540.28;5158608;27;822;-45
2021/09/13 05:53:23;;;;;;;;;;;;;;;25.68;36.54;100535.19;5157935;27;1980;-45
2021/09/13 05:55:48;;;;;;;;;;;;;;;25.88;36.60;100534.69;5158310;27;898;-52
2021/09/13 05:58:14;;;;;;;;;;;;;;;26.07;36.19;100529.84;5139922;27;807;-44
2021/09/13 06:00:39;;;;;;;;;;;;;;;26.19;34.94;100530.25;5157480;27;953;-44
2021/09/13 06:03:08;;;;;;;;;;;;;;;26.00;35.39;100532.44;5157612;27;776;-50
2021/09/13 06:05:34;;;;;;;;;;;;;;;26.18;34.46;100537.50;5158485;27;798;-41
2021/09/13 06:07:59;;;;;;;;;;;;;;;26.38;34.47;100537.00;5158102;27;743;-42
2021/09/13 06:10:24;;;;;;;;;;;;;;;26.28;34.71;100531.84;5158139;27;759;-43
2021/09/13 06:12:50;;;;;;;;;;;;;;;26.23;34.45;100536.94;5157709;27;1969;-46
2021/09/13 06:15:15;;;;;;;;;;;;;;;26.46;34.39;100536.94;5157516;27;950;-44
2021/09/13 06:17:40;;;;;;;;;;;;;;;26.42;34.44;100532.94;5158058;27;743;-44
2021/09/13 06:20:06;;;;;;;;;;;;;;;26.56;33.86;100536.66;5158164;27;749;-45
2021/09/13 06:22:31;;;;;;;;;;;;;;;26.69;33.78;100540.59;5157907;27;1553;-44
2021/09/13 06:24:57;;;;;;;;;;;;;;;27.00;33.86;100542.25;5139111;27;767;-43
2021/09/13 06:27:23;;;;;;;;;;;;;;;26.83;32.08;100539.75;5158177;27;755;-43
2021/09/13 06:29:48;;;;;;;;;;;;;;;26.68;33.07;100536.19;5157260;27;968;-41
2021/09/13 06:32:13;;;;;;;;;;;;;;;26.82;33.20;100546.19;5157671;27;1901;-44
2021/09/13 06:34:39;;;;;;;;;;;;;;;27.07;34.25;100534.28;5158202;27;834;-47
2021/09/13 06:37:04;;;;;;;;;;;;;;;27.42;32.42;100548.00;5157746;27;766;-45
2021/09/13 06:39:30;;;;;;;;;;;;;;;27.39;32.72;100543.81;5157498;27;821;-45
2021/09/13 06:41:55;;;;;;;;;;;;;;;26.92;32.58;100545.06;5158373;27;802;-45
2021/09/13 06:44:25;;;;;;;;;;;;;;;27.00;32.68;100535.00;5137439;27;961;-44
2021/09/13 06:47:01;;;;;;;;;;;;;;;27.53;32.76;100537.75;5158289;27;798;-47
2021/09/13 06:49:27;;;;;;;;;;;;;;;27.35;32.37;100542.53;5157611;27;1284;-47
2021/09/13 06:51:52;;;;;;;;;;;;;;;27.67;32.21;100544.97;5157533;27;849;-46
2021/09/13 06:54:17;;;;;;;;;;;;;;;27.94;32.76;100552.53;5157508;27;1973;-46
2021/09/13 06:56:42;;;;;;;;;;;;;;;28.05;33.03;100551.16;5138624;27;826;-46
2021/09/13 06:59:08;;;;;;;;;;;;;;;28.30;34.10;100553.44;5157047;27;1020;-52
2021/09/13 07:01:33;;;;;;;;;;;;;;;28.41;34.52;100555.63;5157457;27;845;-49
2021/09/13 07:03:58;;;;;;;;;;;;;;;28.53;34.61;100544.28;5157290;27;775;-43
2021/09/13 07:06:25;;;;;;;;;;;;;;;28.59;34.16;100557.03;5157738;27;866;-45
2021/09/13 07:08:50;;;;;;;;;;;;;;;28.59;33.70;100554.31;5158014;27;818;-45
2021/09/13 07:11:17;;;;;;;;;;;;;;;28.68;34.28;100555.81;5162158;27;775;-46
2021/09/13 07:13:43;;;;;;;;;;;;;;;28.75;34.29;100555.88;5160397;27;2033;-47
2021/09/13 07:16:08;;;;;;;;;;;;;;;28.77;34.34;100553.81;5161841;27;771;-42
2021/09/13 07:18:33;;;;;;;;;;;;;;;28.85;34.19;100555.50;5161464;27;822;-42
2021/09/13 07:20:58;;;;;;;;;;;;;;;28.78;33.66;100552.75;5161133;27;1611;-46
2021/09/13 07:23:24;;;;;;;;;;;;;;;28.83;33.97;100552.16;5161704;27;825;-43
2021/09/13 07:25:49;;;;;;;;;;;;;;;28.91;34.01;100556.59;5161542;27;716;-35
2021/09/13 07:28:15;;;;;;;;;;;;;;;28.90;33.87;100561.16;5161533;27;838;-39
2021/09/13 07:30:41;;;;;;;;;;;;;;;29.00;33.58;100550.00;5160325;27;1012;-43
2021/09/13 07:33:06;;;;;;;;;;;;;;;29.01;33.68;100554.34;5161248;27;1972;-45
2021/09/13 07:35:31;;;;;;;;;;;;;;;29.08;33.62;100557.09;5160878;27;718;-44
2021/09/13 07:37:56;;;;;;;;;;;;;;;29.20;33.15;100549.25;5160826;27;870;-43
2021/09/13 07:40:22;;;;;;;;;;;;;;;29.23;33.35;100556.16;5161323;27;755;-48
2021/09/13 07:42:47;;;;;;;;;;;;;;;29.34;33.37;100559.09;5160477;27;814;-51
2021/09/13 07:45:12;;;;;;;;;;;;;;;29.33;33.31;100562.00;5160252;27;949;-41
2021/09/13 07:47:38;;;;;;;;;;;;;;;29.36;33.72;100560.78;5160149;27;795;-43
2021/09/13 07:50:03;;;;;;;;;;;;;;;29.40;33.18;100557.44;5157742;27;1101;-46
2021/09/13 07:52:29;;;;;;;;;;;;;;;29.51;33.38;100555.19;5121432;27;1922;-46
2021/09/13 07:54:54;;;;;;;;;;;;;;;29.41;33.38;100547.44;5139773;27;808;-46
2021/09/13 07:57:19;;;;;;;;;;;;;;;29.41;33.46;100548.28;5140062;27;842;-47
2021/09/13 07:59:45;;;;;;;;;;;;;;;29.50;33.31;100550.78;5139438;27;966;-46
2021/09/13 08:02:12;;;;;;;;;;;;;;;29.55;32.84;100551.03;5140143;27;791;-44
2021/09/13 08:04:37;;;;;;;;;;;;;;;29.64;32.88;100549.84;5139610;27;775;-58
2021/09/13 08:07:03;;;;;;;;;;;;;;;29.65;32.63;100542.53;5139919;27;842;-44
2021/09/13 08:09:28;;;;;;;;;;;;;;;29.61;32.70;100552.13;5139790;27;807;-47
2021/09/13 08:11:53;;;;;;;;;;;;;;;29.63;32.71;100542.72;5139776;27;783;-41
2021/09/13 08:14:19;;;;;;;;;;;;;;;29.61;32.42;100547.53;5138945;27;1968;-45
2021/09/13 08:16:44;;;;;;;;;;;;;;;29.60;32.51;100540.44;5139489;27;827;-49
2021/09/13 08:19:10;;;;;;;;;;;;;;;29.62;32.18;100548.34;5139511;27;924;-49
2021/09/13 08:21:39;;;;;;;;;;;;;;;29.72;32.07;100546.09;5139051;27;1629;-48
2021/09/13 08:24:05;;;;;;;;;;;;;;;29.74;32.02;100541.31;5139102;27;843;-48
2021/09/13 08:26:30;;;;;;;;;;;;;;;29.73;31.83;100555.06;5139450;27;830;-43
2021/09/13 08:28:55;;;;;;;;;;;;;;;29.71;32.21;100549.84;5138721;27;922;-49
2021/09/13 08:31:20;;;;;;;;;;;;;;;29.66;32.04;100553.16;5139489;27;762;-43
2021/09/13 08:33:46;;;;;;;;;;;;;;;29.76;32.11;100554.66;5138517;27;1967;-48
2021/09/13 08:36:11;;;;;;;;;;;;;;;29.68;31.80;100548.38;5148958;27;966;-47
2021/09/13 08:38:36;;;;;;;;;;;;;;;29.82;31.71;100551.94;5138973;27;1255;-45
2021/09/13 08:41:02;;;;;;;;;;;;;;;29.76;31.79;100544.63;5139070;27;882;-48
2021/09/13 08:43:27;;;;;;;;;;;;;;;29.75;31.91;100542.97;5138523;27;957;-59
2021/09/13 08:45:56;;;;;;;;;;;;;;;29.79;31.64;100544.25;5135263;27;1210;-45
2021/09/13 08:49:06;;;;;;;;;;;;;;;29.87;31.57;100548.63;5162114;27;1475;-44
2021/09/13 08:53:41;;;;;;;;;;;;;;;29.86;31.40;100537.97;5180967;27;1970;-52
2021/09/13 08:56:13;;;;;;;;;;;;;;;29.87;31.30;100534.22;5180322;27;766;-49
2021/09/13 08:58:38;;;;;;;;;;;;;;;29.92;31.21;100538.00;5173113;27;1005;-49
2021/09/13 09:01:04;;;;;;;;;;;;;;;29.88;30.80;100533.19;5159221;27;881;-46
2021/09/13 09:03:29;;;;;;;;;;;;;;;29.90;31.14;100537.34;5158734;27;974;-50
2021/09/13 09:05:54;;;;;;;;;;;;;;;29.88;31.03;100534.00;5157963;27;825;-46
2021/09/13 09:08:23;;;;;;;;;;;;;;;29.84;30.99;100538.19;5159396;27;817;-43
2021/09/13 09:10:52;;;;;;;;;;;;;;;29.84;29.40;100527.34;5159693;27;759;-54
2021/09/13 09:13:17;;;;;;;;;;;;;;;29.83;30.22;100531.06;5158311;27;1902;-48
2021/09/13 09:15:59;;;;;;;;;;;;;;;29.88;31.78;100533.19;5158465;27;1073;-47
2021/09/13 09:18:35;;;;;;;;;;;;;;;29.78;31.03;100531.69;5159177;27;806;-47
2021/09/13 09:21:00;;;;;;;;;;;;;;;29.80;33.38;100524.22;5157266;27;1621;-46
2021/09/13 09:23:25;;;;;;;;;;;;;;;29.76;35.93;100528.34;5158968;27;835;-45
2021/09/13 09:25:54;;;;;;;;;;;;;;;29.55;27.60;100524.75;5158719;27;763;-47
2021/09/13 09:28:19;;;;;;;;;;;;;;;29.56;30.57;100523.72;5158848;27;755;-47
2021/09/13 09:30:45;;;;;;;;;;;;;;;29.31;32.00;100521.56;5140293;27;986;-48
2021/09/13 09:33:11;;;;;;;;;;;;;;;29.38;25.50;100524.28;5158334;27;1972;-51
2021/09/13 09:35:42;;;;;;;;;;;;;;;29.11;24.03;100521.50;5158745;27;820;-46
2021/09/13 09:38:25;;;;;;;;;;;;;;;28.68;22.86;100519.78;5158534;27;817;-48
2021/09/13 09:40:58;;;;;;;;;;;;;;;29.09;22.96;100518.16;5158867;27;775;-45
2021/09/13 09:43:23;;;;;;;;;;;;;;;29.39;25.34;100520.56;5159564;27;1596;-43
2021/09/13 09:45:48;;;;;;;;;;;;;;;29.56;26.41;100514.75;5141015;27;938;-45
2021/09/13 09:48:13;;;;;;;;;;;;;;;29.50;27.84;100520.97;5179517;27;1029;-44
2021/09/13 09:50:39;;;;;;;;;;;;;;;29.60;28.07;100517.91;5179312;27;735;-41
2021/09/13 09:53:17;;;;;;;;;;;;;;;29.61;28.16;100517.72;5178956;27;1980;-45
2021/09/13 09:55:44;;;;;;;;;;;;;;;29.51;28.86;100519.97;5179419;27;746;-45
2021/09/13 09:58:10;;;;;;;;;;;;;;;29.50;29.82;100513.69;5178691;27;814;-44
2021/09/13 10:00:37;;;;;;;;;;;;;;;29.50;30.21;100512.84;5160205;27;1016;-44
2021/09/13 10:03:02;;;;;;;;;;;;;;;29.61;29.82;100508.75;5158327;27;811;-43
2021/09/13 10:05:28;;;;;;;;;;;;;;;29.73;29.62;100511.69;5157962;27;880;-50
2021/09/13 10:07:53;;;;;;;;;;;;;;;29.75;29.50;100505.00;5158268;27;909;-42
2021/09/13 10:10:24;;;;;;;;;;;;;;;29.74;29.47;100500.63;5158401;27;838;-44
2021/09/13 10:12:49;;;;;;;;;;;;;;;29.78;30.06;100518.16;5157324;27;1966;-43
2021/09/13 10:15:14;;;;;;;;;;;;;;;29.93;29.38;100506.25;5157884;27;953;-44
2021/09/13 10:17:40;;;;;;;;;;;;;;;30.04;29.16;100488.53;5171992;27;1485;-45
2021/09/13 10:20:06;;;;;;;;;;;;;;;30.10;29.76;100506.69;5175703;27;798;-44
2021/09/13 10:22:38;;;;;;;;;;;;;;;30.09;28.80;100504.19;5138942;27;1566;-44
2021/09/13 10:25:04;;;;;;;;;;;;;;;30.15;29.42;100511.47;5139715;27;818;-44
2021/09/13 10:27:33;;;;;;;;;;;;;;;30.18;29.68;100500.19;5157459;27;841;-47
2021/09/13 10:30:10;;;;;;;;;;;;;;;30.15;29.51;100504.19;5157490;27;993;-44
2021/09/13 10:32:35;;;;;;;;;;;;;;;30.18;29.71;100501.03;5157822;27;1902;-46
2021/09/13 10:35:01;;;;;;;;;;;;;;;30.23;29.79;100499.63;5157980;27;727;-47
2021/09/13 10:37:37;;;;;;;;;;;;;;;30.22;30.10;100508.78;5157567;27;799;-45
2021/09/13 10:40:06;;;;;;;;;;;;;;;30.26;29.61;100505.44;5157922;27;759;-45
2021/09/13 10:42:47;;;;;;;;;;;;;;;30.32;29.68;100511.91;5157723;27;743;-44
2021/09/13 10:45:31;;;;;;;;;;;;;;;30.34;29.64;100507.13;5160563;27;949;-44
2021/09/13 10:48:02;;;;;;;;;;;;;;;30.33;29.20;100501.91;5167314;27;1529;-52
2021/09/13 10:50:27;;;;;;;;;;;;;;;30.34;29.26;100492.72;5161093;27;983;-43
2021/09/13 10:52:53;;;;;;;;;;;;;;;30.33;29.22;100491.88;5162093;27;1972;-52
2021/09/13 10:55:19;;;;;;;;;;;;;;;30.41;29.29;100498.97;5161973;27;751;-43
2021/09/13 10:57:52;;;;;;;;;;;;;;;30.44;29.30;100490.41;5161558;27;755;-48
2021/09/13 11:00:35;;;;;;;;;;;;;;;30.53;29.03;100502.69;5162508;27;826;-46
2021/09/13 11:03:19;;;;;;;;;;;;;;;30.53;29.12;100499.97;5164260;27;1696;-48
2021/09/13 11:05:45;;;;;;;;;;;;;;;30.58;28.63;100491.19;5177907;27;791;-50
2021/09/13 11:08:30;;;;;;;;;;;;;;;30.41;26.96;100493.53;5176034;27;754;-47
2021/09/13 11:10:56;;;;;;;;;;;;;;;30.49;28.89;100492.47;5179203;27;1370;-43
2021/09/13 11:13:21;;;;;;;;;;;;;;;30.39;29.58;100485.63;5182850;27;1913;-42
2021/09/13 11:15:49;;;;;;;;;;;;;;;30.34;29.52;100480.00;5161775;27;1154;-43
2021/09/13 11:18:34;;;;;;;;;;;;;;;30.31;29.61;100486.66;5161303;27;834;-44
2021/09/13 11:21:18;;;;;;;;;;;;;;;30.30;29.95;100489.56;5161486;27;1485;-42
2021/09/13 11:23:51;;;;;;;;;;;;;;;30.25;30.06;100492.09;5161223;27;833;-43
2021/09/13 11:26:16;;;;;;;;;;;;;;;30.24;30.31;100482.28;5161308;27;775;-44
2021/09/13 11:28:54;;;;;;;;;;;;;;;30.25;30.47;100486.66;5160672;27;933;-43
2021/09/13 11:31:29;;;;;;;;;;;;;;;30.29;30.56;100477.06;5161245;27;488;-39
2021/09/13 11:33:55;;;;;;;;;;;;;;;30.47;30.21;100479.13;5160806;27;1964;-39
2021/09/13 11:36:21;;;;;;;;;;;;;;;30.52;30.13;100487.47;5161193;27;747;-39
2021/09/13 11:38:55;;;;;;;;;;;;;;;30.56;30.33;100485.16;5161070;27;783;-38
2021/09/13 11:41:20;;;;;;;;;;;;;;;30.58;30.24;100474.09;5161065;27;751;-38
2021/09/13 11:44:18;;;;;;;;;;;;;;;30.61;30.32;100471.78;5160693;27;1106;-39
2021/09/13 11:46:50;;;;;;;;;;;;;;;30.62;30.41;100468.00;5115601;27;1469;-40
2021/09/13 11:49:22;;;;;;;;;;;;;;;30.67;30.41;100470.91;5165302;27;1485;-39
2021/09/13 11:52:00;;;;;;;;;;;;;;;30.69;30.52;100465.28;5161093;27;811;-39
2021/09/13 11:54:25;;;;;;;;;;;;;;;30.68;30.74;100471.72;5160834;27;1966;-39
2021/09/13 11:56:50;;;;;;;;;;;;;;;30.74;30.73;100465.47;5160458;27;909;-40
2021/09/13 11:59:22;;;;;;;;;;;;;;;30.78;30.92;100463.16;5159949;27;1020;-39
2021/09/13 12:01:57;;;;;;;;;;;;;;;30.77;30.87;100450.63;5160441;27;847;-39
2021/09/13 12:04:23;;;;;;;;;;;;;;;30.76;30.94;100449.78;5166118;27;1649;-40
2021/09/13 12:07:07;;;;;;;;;;;;;;;30.77;31.00;100461.47;5160868;27;751;-40
2021/09/13 12:09:32;;;;;;;;;;;;;;;30.80;30.80;100444.78;5160736;27;763;-40
2021/09/13 12:11:58;;;;;;;;;;;;;;;30.81;31.30;100451.06;5142455;27;829;-39
2021/09/13 12:14:23;;;;;;;;;;;;;;;30.80;31.07;100455.63;5141209;27;1897;-39
2021/09/13 12:17:10;;;;;;;;;;;;;;;30.79;31.31;100441.22;5141936;27;754;-39
2021/09/13 12:19:39;;;;;;;;;;;;;;;30.79;31.16;100443.09;5160341;27;790;-41
2021/09/13 12:22:04;;;;;;;;;;;;;;;30.64;31.54;100446.06;5159984;27;1585;-39
2021/09/13 12:24:30;;;;;;;;;;;;;;;30.47;31.83;100438.41;5160129;27;750;-39
2021/09/13 12:26:55;;;;;;;;;;;;;;;30.39;31.87;100435.94;5160120;27;730;-40
2021/09/13 12:29:21;;;;;;;;;;;;;;;30.36;32.16;100437.19;5159720;27;1017;-39
2021/09/13 12:31:46;;;;;;;;;;;;;;;30.32;32.23;100433.22;5160169;27;798;-39
2021/09/13 12:34:11;;;;;;;;;;;;;;;30.41;31.89;100437.38;5160038;27;1909;-38
2021/09/13 12:36:36;;;;;;;;;;;;;;;30.48;32.01;100434.63;5160053;27;737;-39
2021/09/13 12:39:06;;;;;;;;;;;;;;;30.51;31.77;100438.81;5159744;27;865;-42
2021/09/13 12:41:35;;;;;;;;;;;;;;;30.49;32.27;100432.75;5150145;27;1170;-42
2021/09/13 12:44:21;;;;;;;;;;;;;;;30.47;32.34;100432.97;5158954;27;957;-41
2021/09/13 12:46:53;;;;;;;;;;;;;;;30.48;32.44;100437.34;5158177;27;2005;-42
2021/09/13 12:49:18;;;;;;;;;;;;;;;30.47;32.68;100430.25;5140427;27;1071;-42
2021/09/13 12:52:13;;;;;;;;;;;;;;;30.50;32.56;100429.00;5159072;27;818;-42
2021/09/13 12:54:38;;;;;;;;;;;;;;;30.48;32.74;100426.50;5126066;27;1085;-42